Aroya, Colorado
Current Conditions -  °F | °C
As of 7:55 AM on Saturday 25 Oct 2014 (Local Time) from KLIC Reporting Station
Clear Clear  
Wind Chill: 43°   Ceiling: Unl
Heat Index: 47°   Visibility: 10mi
Dew Point: 28°   Wind: 9mph
Humidity: 48%   Direction: 290°WNW
Pressure: 30.24"   Gusts: NA
Location:  38.8543°N, 103.125°W
Report Text: KLIC 251355Z AUTO 29008KT 10SM CLR 08/M02 A3024 RMK AO2 SLP215 T00831022
Loading
Personal Weather Stations






























Interactive Weather Map
Tropical Storm Tracking
New forecast layout! Learn more

10-Day Weather Forecast

Advertisements
Track Severe Weather on mobile